createdAt,value
2023-05-21T00:00:19.223Z,100685.19
2023-05-21T00:02:45.723Z,100682.34
2023-05-21T00:05:14.750Z,100684.56
2023-05-21T00:07:41.653Z,100684.22
2023-05-21T00:10:08.774Z,100674.22
2023-05-21T00:12:35.409Z,100673.25
2023-05-21T00:15:02.035Z,100673.00
2023-05-21T00:17:28.624Z,100675.53
2023-05-21T00:19:55.448Z,100672.84
2023-05-21T00:22:23.270Z,100674.56
2023-05-21T00:24:49.827Z,100670.06
2023-05-21T00:27:16.429Z,100673.84
2023-05-21T00:29:44.258Z,100664.69
2023-05-21T00:32:11.288Z,100664.69
2023-05-21T00:34:37.922Z,100657.25
2023-05-21T00:37:04.891Z,100665.06
2023-05-21T00:39:32.669Z,100659.69
2023-05-21T00:41:59.210Z,100664.09
2023-05-21T00:44:25.700Z,100649.69
2023-05-21T00:46:52.688Z,100659.44
2023-05-21T00:49:19.345Z,100657.59
2023-05-21T00:51:46.013Z,100663.34
2023-05-21T00:54:12.754Z,100660.47
2023-05-21T00:56:41.281Z,100652.28
2023-05-21T00:59:08.185Z,100652.88
2023-05-21T01:01:35.282Z,100645.56
2023-05-21T01:04:01.904Z,100647.41
2023-05-21T01:06:28.468Z,100655.31
2023-05-21T01:08:55.652Z,100657.25
2023-05-21T01:11:32.926Z,100652.63
2023-05-21T01:14:00.790Z,100648.25
2023-05-21T01:16:27.311Z,100649.59
2023-05-21T01:18:53.959Z,100652.91
2023-05-21T01:21:24.514Z,100652.53
2023-05-21T01:23:52.437Z,100662.16
2023-05-21T01:26:18.962Z,100653.13
2023-05-21T01:28:45.451Z,100653.88
2023-05-21T01:31:22.554Z,100654.72
2023-05-21T01:33:51.291Z,100664.44
2023-05-21T01:36:22.718Z,100664.44
2023-05-21T01:38:55.358Z,100661.66
2023-05-21T01:41:23.137Z,100657.88
2023-05-21T01:43:51.219Z,100656.44
2023-05-21T01:46:22.740Z,100655.34
2023-05-21T01:48:50.982Z,100656.31
2023-05-21T01:51:17.867Z,100668.25
2023-05-21T01:53:44.767Z,100672.75
2023-05-21T01:56:12.645Z,100669.09
2023-05-21T01:58:39.093Z,100666.44
2023-05-21T02:01:05.624Z,100667.97
2023-05-21T02:03:32.229Z,100668.88
2023-05-21T02:05:58.918Z,100661.41
2023-05-21T02:08:25.467Z,100660.22
2023-05-21T02:10:52.015Z,100649.22
2023-05-21T02:13:19.787Z,100664.09
2023-05-21T02:15:46.334Z,100655.94
2023-05-21T02:18:13.036Z,100651.28
2023-05-21T02:20:39.498Z,100650.34
2023-05-21T02:23:05.931Z,100645.81
2023-05-21T02:25:32.385Z,100649.22
2023-05-21T02:27:58.943Z,100655.56
2023-05-21T02:30:26.834Z,100647.75
2023-05-21T02:32:53.484Z,100646.69
2023-05-21T02:35:20.027Z,100640.22
2023-05-21T02:37:46.714Z,100639.00
2023-05-21T02:40:13.397Z,100634.34
2023-05-21T02:42:40.726Z,100637.88
2023-05-21T02:45:08.632Z,100640.56
2023-05-21T02:47:36.454Z,100640.44
2023-05-21T02:50:03.176Z,100636.78
2023-05-21T02:52:29.642Z,100637.53
2023-05-21T02:54:56.070Z,100637.75
2023-05-21T02:57:22.643Z,100630.47
2023-05-21T02:59:49.110Z,100631.19
2023-05-21T03:02:15.677Z,100639.00
2023-05-21T03:04:43.670Z,100634.34
2023-05-21T03:07:10.082Z,100644.97
2023-05-21T03:09:36.660Z,100641.16
2023-05-21T03:12:03.250Z,100639.47
2023-05-21T03:14:29.656Z,100639.34
2023-05-21T03:16:56.144Z,100638.47
2023-05-21T03:19:22.675Z,100631.56
2023-05-21T03:21:50.622Z,100633.13
2023-05-21T03:24:17.130Z,100640.22
2023-05-21T03:26:43.575Z,100641.69
2023-05-21T03:29:10.097Z,100639.00
2023-05-21T03:31:36.573Z,100641.53
2023-05-21T03:34:03.209Z,100647.75
2023-05-21T03:36:29.634Z,100647.75
2023-05-21T03:38:57.414Z,100649.47
2023-05-21T03:41:23.986Z,100655.81
2023-05-21T03:43:50.450Z,100655.94
2023-05-21T03:46:16.980Z,100653.16
2023-05-21T03:48:43.487Z,100649.63
2023-05-21T03:51:09.944Z,100641.44
2023-05-21T03:53:36.809Z,100644.84
2023-05-21T03:56:04.960Z,100646.56
2023-05-21T03:58:31.420Z,100655.44
2023-05-21T04:00:58.082Z,100652.66
2023-05-21T04:03:24.788Z,100648.00
2023-05-21T04:05:51.465Z,100652.53
2023-05-21T04:08:17.907Z,100650.97
2023-05-21T04:10:44.396Z,100657.53
2023-05-21T04:13:12.242Z,100650.72
2023-05-21T04:15:38.923Z,100654.13
2023-05-21T04:18:05.606Z,100649.47
2023-05-21T04:20:32.073Z,100644.84
2023-05-21T04:22:58.524Z,100648.13
2023-05-21T04:25:25.006Z,100648.13
2023-05-21T04:27:51.483Z,100649.72
2023-05-21T04:30:19.289Z,100653.38
2023-05-21T04:32:45.964Z,100653.13
2023-05-21T04:35:12.543Z,100652.28
2023-05-21T04:37:39.060Z,100649.47
2023-05-21T04:40:06.380Z,100650.72
2023-05-21T04:42:32.809Z,100655.69
2023-05-21T04:44:59.466Z,100663.50
2023-05-21T04:47:27.374Z,100659.84
2023-05-21T04:49:53.910Z,100664.09
2023-05-21T04:52:20.376Z,100664.09
2023-05-21T04:54:46.856Z,100665.81
2023-05-21T04:57:13.492Z,100666.66
2023-05-21T04:59:39.930Z,100646.91
2023-05-21T05:02:06.370Z,100652.16
2023-05-21T05:04:34.132Z,100653.16
2023-05-21T05:07:00.647Z,100651.06
2023-05-21T05:09:27.161Z,100644.00
2023-05-21T05:11:53.648Z,100649.22
2023-05-21T05:14:20.072Z,100659.00
2023-05-21T05:16:46.719Z,100654.34
2023-05-21T05:19:13.304Z,100654.50
2023-05-21T05:21:41.115Z,100655.34
2023-05-21T05:24:07.620Z,100650.69
2023-05-21T05:26:34.079Z,100649.38
2023-05-21T05:29:00.577Z,100641.97
2023-05-21T05:31:27.191Z,100638.28
2023-05-21T05:33:53.767Z,100636.91
2023-05-21T05:36:20.262Z,100636.56
2023-05-21T05:38:48.053Z,100639.94
2023-05-21T05:41:14.598Z,100646.06
2023-05-21T05:43:41.087Z,100646.91
2023-05-21T05:46:07.587Z,100649.59
2023-05-21T05:48:34.301Z,100646.81
2023-05-21T05:51:01.249Z,100645.81
2023-05-21T05:53:27.739Z,100637.66
2023-05-21T05:55:55.489Z,100646.81
2023-05-21T05:58:21.932Z,100646.44
2023-05-21T06:00:48.412Z,100648.00
2023-05-21T06:03:14.967Z,100647.75
2023-05-21T06:05:41.509Z,100662.00
2023-05-21T06:08:07.972Z,100661.06
2023-05-21T06:10:34.384Z,100658.38
2023-05-21T06:13:02.213Z,100660.91
2023-05-21T06:15:28.835Z,100665.31
2023-05-21T06:17:55.370Z,100663.16
2023-05-21T06:20:21.887Z,100665.56
2023-05-21T06:22:48.364Z,100664.63
2023-05-21T06:25:14.893Z,100666.06
2023-05-21T06:27:41.416Z,100671.19
2023-05-21T06:30:09.630Z,100668.38
2023-05-21T06:32:36.108Z,100657.78
2023-05-21T06:35:02.626Z,100661.16
2023-05-21T06:37:29.073Z,100655.69
2023-05-21T06:39:55.487Z,100672.50
2023-05-21T06:42:21.958Z,100671.53
2023-05-21T06:44:48.487Z,100671.69
2023-05-21T06:47:16.432Z,100668.16
2023-05-21T06:49:42.871Z,100665.22
2023-05-21T06:52:09.454Z,100667.66
2023-05-21T06:54:35.959Z,100674.59
2023-05-21T06:57:02.449Z,100670.94
2023-05-21T06:59:28.895Z,100679.69
2023-05-21T07:01:55.447Z,100675.19
2023-05-21T07:04:23.264Z,100670.66
2023-05-21T07:06:49.709Z,100667.13
2023-05-21T07:09:16.192Z,100667.53
2023-05-21T07:11:42.664Z,100669.00
2023-05-21T07:14:09.202Z,100668.84
2023-05-21T07:16:35.755Z,100671.19
2023-05-21T07:19:02.323Z,100677.25
2023-05-21T07:21:30.275Z,100670.94
2023-05-21T07:23:56.900Z,100673.50
2023-05-21T07:26:23.362Z,100665.44
2023-05-21T07:28:49.797Z,100667.97
2023-05-21T07:31:16.281Z,100678.72
2023-05-21T07:33:42.789Z,100672.75
2023-05-21T07:36:09.350Z,100675.09
2023-05-21T07:38:37.133Z,100667.06
2023-05-21T07:41:03.743Z,100672.13
2023-05-21T07:43:31.252Z,100671.06
2023-05-21T07:45:57.737Z,100675.44
2023-05-21T07:48:24.323Z,100672.63
2023-05-21T07:50:50.747Z,100668.97
2023-05-21T07:53:17.281Z,100668.88
2023-05-21T07:55:45.336Z,100673.25
2023-05-21T07:58:11.891Z,100672.50
2023-05-21T08:00:43.528Z,100670.59
2023-05-21T08:03:10.056Z,100668.75
2023-05-21T08:05:36.758Z,100662.16
2023-05-21T08:08:03.556Z,100662.91
2023-05-21T08:10:30.030Z,100664.59
2023-05-21T08:12:57.890Z,100667.28
2023-05-21T08:15:24.347Z,100665.44
2023-05-21T08:17:50.839Z,100666.19
2023-05-21T08:20:17.442Z,100663.50
2023-05-21T08:22:43.916Z,100672.25
2023-05-21T08:25:10.339Z,100663.25
2023-05-21T08:27:36.924Z,100670.59
2023-05-21T08:30:05.475Z,100672.88
2023-05-21T08:32:31.931Z,100660.22
2023-05-21T08:34:58.383Z,100674.34
2023-05-21T08:37:24.875Z,100668.88
2023-05-21T08:39:51.386Z,100675.94
2023-05-21T08:42:36.168Z,100677.50
2023-05-21T08:45:06.752Z,100667.50
2023-05-21T08:47:35.932Z,100674.69
2023-05-21T08:50:04.246Z,100672.63
2023-05-21T08:52:31.023Z,100672.13
2023-05-21T08:54:58.337Z,100673.50
2023-05-21T08:57:26.657Z,100670.66
2023-05-21T08:59:53.289Z,100671.53
2023-05-21T09:02:21.314Z,100665.06
2023-05-21T09:04:49.737Z,100664.81
2023-05-21T09:07:16.571Z,100656.75
2023-05-21T09:09:48.920Z,100654.06
2023-05-21T09:12:15.451Z,100650.41
2023-05-21T09:14:43.195Z,100644.13
2023-05-21T09:17:13.264Z,100637.03
2023-05-21T09:20:04.838Z,100642.03
2023-05-21T09:22:31.466Z,100639.94
2023-05-21T09:24:57.968Z,100636.28
2023-05-21T09:27:24.548Z,100637.13
2023-05-21T09:29:50.986Z,100637.88
2023-05-21T09:32:17.691Z,100639.44
2023-05-21T09:34:47.335Z,100640.28
2023-05-21T09:37:26.557Z,100651.88
2023-05-21T09:39:53.863Z,100645.19
2023-05-21T09:42:20.792Z,100644.72
2023-05-21T09:44:47.653Z,100641.75
2023-05-21T09:47:19.604Z,100651.38
2023-05-21T09:49:49.057Z,100651.28
2023-05-21T09:52:23.346Z,100646.63
2023-05-21T09:54:52.016Z,100651.16
2023-05-21T09:57:23.821Z,100654.44
2023-05-21T09:59:50.731Z,100642.72
2023-05-21T10:02:20.034Z,100648.91
2023-05-21T10:04:49.845Z,100645.78
2023-05-21T10:07:19.019Z,100648.97
2023-05-21T10:09:47.276Z,100647.72
2023-05-21T10:12:14.495Z,100645.53
2023-05-21T10:14:43.408Z,100649.81
2023-05-21T10:17:11.907Z,100644.28
2023-05-21T10:19:39.982Z,100650.50
2023-05-21T10:22:08.775Z,100641.50
2023-05-21T10:24:36.520Z,100639.66
2023-05-21T10:27:03.693Z,100642.34
2023-05-21T10:29:31.977Z,100640.28
2023-05-21T10:32:00.599Z,100628.94
2023-05-21T10:34:28.154Z,100645.53
2023-05-21T10:36:55.639Z,100641.75
2023-05-21T10:39:24.103Z,100634.28
2023-05-21T10:41:59.223Z,100639.41
2023-05-21T10:44:36.605Z,100638.44
2023-05-21T10:47:23.869Z,100642.69
2023-05-21T10:50:01.995Z,100622.91
2023-05-21T10:52:44.317Z,100611.59
2023-05-21T10:55:23.114Z,100619.41
2023-05-21T10:58:10.804Z,100620.16
2023-05-21T11:00:37.738Z,100614.28
2023-05-21T11:03:05.403Z,100619.13
2023-05-21T11:05:39.291Z,100626.06
2023-05-21T11:08:06.116Z,100614.47
2023-05-21T11:10:38.928Z,100612.63
2023-05-21T11:13:08.034Z,100604.47
2023-05-21T11:15:54.397Z,100602.44
2023-05-21T11:18:20.865Z,100606.34
2023-05-21T11:20:50.712Z,100608.75
2023-05-21T11:23:17.185Z,100617.56
2023-05-21T11:25:51.244Z,100602.75
2023-05-21T11:28:32.867Z,100599.09
2023-05-21T11:31:22.652Z,100599.09
2023-05-21T11:34:08.471Z,100605.91
2023-05-21T11:36:36.980Z,100608.41
2023-05-21T11:39:11.997Z,100605.13
2023-05-21T11:41:51.260Z,100610.22
2023-05-21T11:44:17.874Z,100614.38
2023-05-21T11:46:44.378Z,100616.75
2023-05-21T11:49:12.554Z,100619.34
2023-05-21T11:51:40.564Z,100627.13
2023-05-21T11:54:08.476Z,100622.47
2023-05-21T11:56:37.000Z,100619.34
2023-05-21T11:59:04.856Z,100618.84
2023-05-21T12:01:31.298Z,100616.06
2023-05-21T12:03:57.855Z,100602.50
2023-05-21T12:06:26.555Z,100609.31
2023-05-21T12:08:53.161Z,100607.50
2023-05-21T12:11:20.276Z,100611.75
2023-05-21T12:13:46.818Z,100613.72
2023-05-21T12:16:14.977Z,100609.97
2023-05-21T12:18:41.582Z,100613.63
2023-05-21T12:21:09.630Z,100621.03
2023-05-21T12:23:37.008Z,100613.56
2023-05-21T12:26:04.347Z,100612.47
2023-05-21T12:28:31.579Z,100609.78
2023-05-21T12:30:58.111Z,100610.63
2023-05-21T12:33:33.847Z,100611.53
2023-05-21T12:36:00.401Z,100615.66
2023-05-21T12:38:30.154Z,100618.09
2023-05-21T12:41:03.463Z,100613.47
2023-05-21T12:43:31.629Z,100616.16
2023-05-21T12:45:58.314Z,100614.16
2023-05-21T12:48:26.164Z,100612.00
2023-05-21T12:50:52.631Z,100612.28
2023-05-21T12:53:19.153Z,100619.34
2023-05-21T12:55:45.722Z,100617.94
2023-05-21T12:58:13.814Z,100617.84
2023-05-21T13:00:41.954Z,100616.75
2023-05-21T13:03:08.648Z,100608.69
2023-05-21T13:05:40.306Z,100613.47
2023-05-21T13:08:06.752Z,100616.50
2023-05-21T13:10:33.210Z,100606.38
2023-05-21T13:12:59.788Z,100606.25
2023-05-21T13:15:26.242Z,100618.56
2023-05-21T13:17:54.423Z,100612.91
2023-05-21T13:20:22.463Z,100611.97
2023-05-21T13:22:51.207Z,100605.66
2023-05-21T13:25:18.937Z,100605.66
2023-05-21T13:27:46.725Z,100607.09
2023-05-21T13:30:13.496Z,100614.06
2023-05-21T13:32:40.934Z,100615.59
2023-05-21T13:35:08.504Z,100611.97
2023-05-21T13:37:35.520Z,100610.53
2023-05-21T13:40:03.932Z,100614.56
2023-05-21T13:42:30.489Z,100611.47
2023-05-21T13:44:57.060Z,100603.91
2023-05-21T13:47:23.790Z,100609.03
2023-05-21T13:49:51.871Z,100613.25
2023-05-21T13:52:20.269Z,100611.81
2023-05-21T13:54:47.167Z,100601.59
2023-05-21T13:57:15.041Z,100602.19
2023-05-21T13:59:41.656Z,100605.34
2023-05-21T14:02:09.320Z,100610.34
2023-05-21T14:04:38.954Z,100619.97
2023-05-21T14:07:06.517Z,100615.88
2023-05-21T14:09:33.471Z,100602.06
2023-05-21T14:11:59.933Z,100606.19
2023-05-21T14:14:27.676Z,100615.59
2023-05-21T14:16:54.394Z,100609.09
2023-05-21T14:19:21.014Z,100615.91
2023-05-21T14:21:47.503Z,100613.38
2023-05-21T14:24:14.014Z,100613.25
2023-05-21T14:26:40.929Z,100606.81
2023-05-21T14:29:07.698Z,100608.50
2023-05-21T14:31:35.583Z,100609.56
2023-05-21T14:34:02.067Z,100616.50
2023-05-21T14:36:28.545Z,100613.63
2023-05-21T14:38:55.100Z,100615.59
2023-05-21T14:41:24.014Z,100607.16
2023-05-21T14:43:50.484Z,100614.81
2023-05-21T14:46:16.928Z,100611.84
2023-05-21T14:48:44.870Z,100609.00
2023-05-21T14:51:11.326Z,100611.19
2023-05-21T14:53:37.776Z,100619.97
2023-05-21T14:56:04.600Z,100612.38
2023-05-21T14:58:31.029Z,100612.00
2023-05-21T15:00:57.821Z,100609.16
2023-05-21T15:03:24.405Z,100608.72
2023-05-21T15:05:52.283Z,100606.56
2023-05-21T15:08:18.704Z,100601.63
2023-05-21T15:10:45.417Z,100612.97
2023-05-21T15:13:11.851Z,100604.78
2023-05-21T15:15:38.507Z,100608.72
2023-05-21T15:18:05.266Z,100602.88
2023-05-21T15:20:31.899Z,100611.66
2023-05-21T15:25:31.472Z,100601.13
2023-05-21T15:27:57.884Z,100601.38
2023-05-21T15:30:24.400Z,100604.88
2023-05-21T15:32:50.869Z,100603.88
2023-05-21T15:35:17.351Z,100605.16
2023-05-21T15:37:43.873Z,100610.28
2023-05-21T15:40:12.220Z,100607.34
2023-05-21T15:42:38.797Z,100620.38
2023-05-21T15:45:06.021Z,100614.09
2023-05-21T15:47:32.555Z,100609.09
2023-05-21T15:49:59.147Z,100600.69
2023-05-21T15:52:25.831Z,100614.53
2023-05-21T15:54:52.292Z,100605.38
2023-05-21T15:57:20.051Z,100614.94
2023-05-21T15:59:46.538Z,100607.16
2023-05-21T16:02:13.002Z,100603.34
2023-05-21T16:04:39.452Z,100610.16
2023-05-21T16:07:05.898Z,100610.88
2023-05-21T16:09:32.430Z,100608.44
2023-05-21T16:11:58.889Z,100605.47
2023-05-21T16:14:26.762Z,100600.69
2023-05-21T16:16:53.300Z,100599.41
2023-05-21T16:19:19.775Z,100600.28
2023-05-21T16:21:46.223Z,100592.31
2023-05-21T16:24:12.893Z,100592.88
2023-05-21T16:26:39.358Z,100596.25
2023-05-21T16:29:05.822Z,100586.00
2023-05-21T16:31:33.539Z,100586.69
2023-05-21T16:34:00.012Z,100587.16
2023-05-21T16:36:26.503Z,100590.56
2023-05-21T16:38:53.077Z,100590.63
2023-05-21T16:41:19.531Z,100585.53
2023-05-21T16:43:46.004Z,100586.00
2023-05-21T16:46:12.550Z,100585.47
2023-05-21T16:48:40.268Z,100578.00
2023-05-21T16:51:06.729Z,100582.31
2023-05-21T16:53:33.218Z,100580.88
2023-05-21T16:55:59.809Z,100580.63
2023-05-21T16:58:26.262Z,100591.81
2023-05-21T17:00:52.801Z,100587.28
2023-05-21T17:03:19.353Z,100585.72
2023-05-21T17:05:47.144Z,100580.03
2023-05-21T17:08:13.658Z,100577.94
2023-05-21T17:10:40.206Z,100576.94
2023-05-21T17:13:20.581Z,100582.50
2023-05-21T17:15:49.213Z,100580.38
2023-05-21T17:18:15.839Z,100579.19
2023-05-21T17:20:42.276Z,100579.78
2023-05-21T17:23:10.323Z,100580.22
2023-05-21T17:25:37.179Z,100583.50
2023-05-21T17:28:04.098Z,100580.69
2023-05-21T17:30:30.552Z,100585.19
2023-05-21T17:32:57.032Z,100583.31
2023-05-21T17:35:23.891Z,100586.25
2023-05-21T17:37:50.367Z,100582.31
2023-05-21T17:40:18.154Z,100578.38
2023-05-21T17:42:44.660Z,100591.53
2023-05-21T17:45:11.392Z,100584.28
2023-05-21T17:47:37.919Z,100591.63
2023-05-21T17:50:04.969Z,100591.38
2023-05-21T17:52:31.449Z,100591.94
2023-05-21T17:54:57.906Z,100596.06
2023-05-21T17:57:25.633Z,100602.28
2023-05-21T17:59:52.185Z,100606.63
2023-05-21T18:02:18.705Z,100607.00
2023-05-21T18:04:45.163Z,100611.41
2023-05-21T18:07:11.623Z,100607.47
2023-05-21T18:09:38.101Z,100605.38
2023-05-21T18:12:06.757Z,100613.09
2023-05-21T18:14:34.627Z,100616.19
2023-05-21T18:17:01.343Z,100618.75
2023-05-21T18:19:27.963Z,100619.47
2023-05-21T18:21:54.499Z,100618.47
2023-05-21T18:24:21.004Z,100622.59
2023-05-21T18:26:48.808Z,100617.03
2023-05-21T18:29:15.236Z,100624.63
2023-05-21T18:31:44.404Z,100622.66
2023-05-21T18:34:10.903Z,100626.06
2023-05-21T18:36:37.332Z,100618.75
2023-05-21T18:39:04.569Z,100625.69
2023-05-21T18:41:31.048Z,100623.38
2023-05-21T18:43:57.460Z,100624.84
2023-05-21T18:46:24.091Z,100624.84
2023-05-21T18:48:51.845Z,100615.72
2023-05-21T18:51:18.362Z,100614.72
2023-05-21T18:53:44.821Z,100624.38
2023-05-21T18:56:11.313Z,100615.47
2023-05-21T18:58:37.748Z,100613.50
2023-05-21T19:01:04.247Z,100621.72
2023-05-21T19:03:30.861Z,100615.25
2023-05-21T19:05:58.664Z,100613.25
2023-05-21T19:08:25.096Z,100619.47
2023-05-21T19:10:51.613Z,100627.31
2023-05-21T19:13:18.158Z,100625.84
2023-05-21T19:15:44.791Z,100624.66
2023-05-21T19:18:11.403Z,100629.16
2023-05-21T19:20:38.037Z,100633.44
2023-05-21T19:23:06.184Z,100635.00
2023-05-21T19:25:32.620Z,100630.50
2023-05-21T19:27:59.143Z,100626.81
2023-05-21T19:30:25.565Z,100634.03
2023-05-21T19:32:52.265Z,100635.78
2023-05-21T19:35:20.480Z,100635.91
2023-05-21T19:37:46.974Z,100639.31
2023-05-21T19:40:14.822Z,100638.31
2023-05-21T19:42:41.299Z,100646.28
2023-05-21T19:45:08.924Z,100636.50
2023-05-21T19:47:35.506Z,100638.91
2023-05-21T19:50:02.960Z,100637.47
2023-05-21T19:52:29.417Z,100639.13
2023-05-21T19:54:55.822Z,100637.38
2023-05-21T19:57:23.584Z,100638.97
2023-05-21T19:59:50.081Z,100641.50
2023-05-21T20:02:16.626Z,100640.56
2023-05-21T20:04:43.124Z,100643.25
2023-05-21T20:07:09.741Z,100644.94
2023-05-21T20:09:36.237Z,100654.94
2023-05-21T20:12:02.795Z,100654.13
2023-05-21T20:14:30.498Z,100662.06
2023-05-21T20:16:56.998Z,100663.53
2023-05-21T20:19:23.682Z,100666.91
2023-05-21T20:21:50.287Z,100667.75
2023-05-21T20:24:16.921Z,100666.81
2023-05-21T20:26:43.363Z,100669.50
2023-05-21T20:29:09.873Z,100669.34
2023-05-21T20:31:37.740Z,100678.28
2023-05-21T20:34:04.182Z,100673.16
2023-05-21T20:36:30.644Z,100672.06
2023-05-21T20:38:57.200Z,100676.34
2023-05-21T20:41:23.695Z,100676.22
2023-05-21T20:43:50.192Z,100681.56
2023-05-21T20:46:16.710Z,100673.53
2023-05-21T20:48:44.508Z,100674.38
2023-05-21T20:51:11.066Z,100681.13
2023-05-21T20:53:37.625Z,100681.63
2023-05-21T20:56:04.414Z,100680.63
2023-05-21T20:58:30.866Z,100683.06
2023-05-21T21:00:57.332Z,100681.13
2023-05-21T21:03:23.907Z,100674.75
2023-05-21T21:05:51.735Z,100679.28
2023-05-21T21:08:18.245Z,100674.75
2023-05-21T21:10:45.338Z,100672.94
2023-05-21T21:13:12.017Z,100667.44
2023-05-21T21:15:38.466Z,100675.66
2023-05-21T21:18:05.197Z,100669.19
2023-05-21T21:20:31.628Z,100655.63
2023-05-21T21:22:59.445Z,100660.88
2023-05-21T21:25:25.977Z,100661.59
2023-05-21T21:27:52.435Z,100663.28
2023-05-21T21:30:18.964Z,100665.97
2023-05-21T21:32:45.679Z,100655.50
2023-05-21T21:35:12.139Z,100653.44
2023-05-21T21:37:38.614Z,100660.63
2023-05-21T21:40:07.542Z,100663.94
2023-05-21T21:42:34.146Z,100670.03
2023-05-21T21:45:00.820Z,100669.88
2023-05-21T21:47:27.388Z,100669.03
2023-05-21T21:49:53.828Z,100659.03
2023-05-21T21:52:20.284Z,100660.88
2023-05-21T21:54:46.790Z,100664.78
2023-05-21T21:57:14.673Z,100667.09
2023-05-21T21:59:41.115Z,100676.75
2023-05-21T22:02:07.578Z,100674.81
2023-05-21T22:04:34.121Z,100673.81
2023-05-21T22:07:00.620Z,100671.00
2023-05-21T22:09:27.239Z,100681.63
2023-05-21T22:11:53.818Z,100677.22
2023-05-21T22:14:21.717Z,100671.72
2023-05-21T22:16:48.250Z,100681.13
2023-05-21T22:19:14.885Z,100680.91
2023-05-21T22:21:41.483Z,100677.97
2023-05-21T22:24:12.732Z,100675.16
2023-05-21T22:26:44.192Z,100673.22
2023-05-21T22:29:10.737Z,100677.59
2023-05-21T22:31:38.500Z,100677.47
2023-05-21T22:34:04.990Z,100672.13
2023-05-21T22:36:31.431Z,100674.66
2023-05-21T22:38:57.901Z,100668.09
2023-05-21T22:41:24.412Z,100675.78
2023-05-21T22:43:50.887Z,100665.78
2023-05-21T22:46:17.514Z,100678.97
2023-05-21T22:48:45.329Z,100669.06
2023-05-21T22:51:11.816Z,100671.63
2023-05-21T22:53:38.281Z,100669.94
2023-05-21T22:56:05.169Z,100680.53
2023-05-21T22:58:31.829Z,100674.19
2023-05-21T23:00:58.413Z,100681.03
2023-05-21T23:03:24.878Z,100680.53
2023-05-21T23:05:52.695Z,100682.13
2023-05-21T23:08:19.293Z,100680.19
2023-05-21T23:10:45.720Z,100672.84
2023-05-21T23:13:12.187Z,100675.44
2023-05-21T23:15:38.668Z,100677.97
2023-05-21T23:18:05.378Z,100680.66
2023-05-21T23:20:31.894Z,100684.19
2023-05-21T23:22:59.713Z,100682.00
2023-05-21T23:25:26.170Z,100681.53
2023-05-21T23:27:52.636Z,100679.69
2023-05-21T23:30:19.064Z,100687.66
2023-05-21T23:32:45.681Z,100691.03
2023-05-21T23:35:12.155Z,100683.84
2023-05-21T23:37:38.631Z,100677.50
2023-05-21T23:40:07.489Z,100678.47
2023-05-21T23:42:33.981Z,100680.06
2023-05-21T23:45:00.529Z,100676.03
2023-05-21T23:47:27.059Z,100674.81
2023-05-21T23:49:53.637Z,100672.88
2023-05-21T23:52:20.229Z,100669.22
2023-05-21T23:54:46.731Z,100666.28
2023-05-21T23:57:14.545Z,100665.31
2023-05-21T23:59:41.004Z,100667.13
